METAR Data
IDs: Format: Raw Decoded Include TAF

Data at: 2023 UTC 18 Apr 2021

KPCZ 182015Z AUTO 00000KT 10SM BKN080 16/M06 A2980 RMK AO2 T01631060